sensor_id;sensor_type;location;lat;lon;timestamp;pressure;altitude;pressure_sealevel;temperature;humidity
75219;BME280;63801;49.414;19.474;2024-03-23T00:51:11;93300.09;;;9.04;61.07
75219;BME280;63801;49.414;19.474;2024-03-23T00:55:13;93300.09;;;9.04;60.80
75219;BME280;63801;49.414;19.474;2024-03-23T00:57:14;93301.66;;;9.05;60.90
75219;BME280;63801;49.414;19.474;2024-03-23T00:59:14;93290.56;;;9.07;60.85
75219;BME280;63801;49.414;19.474;2024-03-23T01:01:14;93294.38;;;9.06;60.92
75219;BME280;63801;49.414;19.474;2024-03-23T01:03:15;93292.03;;;9.04;60.86
75219;BME280;63801;49.414;19.474;2024-03-23T01:05:15;93292.03;;;9.04;60.75
75219;BME280;63801;49.414;19.474;2024-03-23T01:07:15;93286.63;;;9.04;60.92
75219;BME280;63801;49.414;19.474;2024-03-23T01:09:16;93278.16;;;9.02;60.76
75219;BME280;63801;49.414;19.474;2024-03-23T01:11:16;93281.91;;;8.97;60.96
75219;BME280;63801;49.414;19.474;2024-03-23T01:13:16;93275.38;;;8.98;60.99
75219;BME280;63801;49.414;19.474;2024-03-23T01:15:20;93274.16;;;8.96;61.10
75219;BME280;63801;49.414;19.474;2024-03-23T01:17:21;93279.88;;;8.94;61.09
75219;BME280;63801;49.414;19.474;2024-03-23T01:19:21;93281.03;;;8.93;61.26
75219;BME280;63801;49.414;19.474;2024-03-23T01:21:22;93274.09;;;8.92;61.10
75219;BME280;63801;49.414;19.474;2024-03-23T01:23:22;93280.66;;;8.95;61.10
75219;BME280;63801;49.414;19.474;2024-03-23T01:25:22;93270.63;;;8.92;61.25
75219;BME280;63801;49.414;19.474;2024-03-23T01:27:23;93267.84;;;8.88;61.49
75219;BME280;63801;49.414;19.474;2024-03-23T01:29:23;93262.47;;;8.88;61.38
75219;BME280;63801;49.414;19.474;2024-03-23T01:31:23;93261.69;;;8.88;61.44
75219;BME280;63801;49.414;19.474;2024-03-23T01:33:24;93260.13;;;8.87;61.47
75219;BME280;63801;49.414;19.474;2024-03-23T01:35:24;93249.38;;;8.87;61.54
75219;BME280;63801;49.414;19.474;2024-03-23T01:37:25;93245.56;;;8.88;61.38
75219;BME280;63801;49.414;19.474;2024-03-23T01:39:25;93239.41;;;8.87;61.67
75219;BME280;63801;49.414;19.474;2024-03-23T01:41:25;93240.97;;;8.88;61.36
75219;BME280;63801;49.414;19.474;2024-03-23T01:43:25;93230.56;;;8.87;61.81
75219;BME280;63801;49.414;19.474;2024-03-23T01:45:26;93230.16;;;8.85;61.56
75219;BME280;63801;49.414;19.474;2024-03-23T01:47:26;93238.97;;;8.85;61.57
75219;BME280;63801;49.414;19.474;2024-03-23T01:49:26;93237.78;;;8.83;61.69
75219;BME280;63801;49.414;19.474;2024-03-23T01:51:28;93248.88;;;8.81;61.82
75219;BME280;63801;49.414;19.474;2024-03-23T01:53:29;93230.75;;;8.78;61.95
75219;BME280;63801;49.414;19.474;2024-03-23T01:55:29;93232.25;;;8.76;62.07
75219;BME280;63801;49.414;19.474;2024-03-23T01:57:31;93228.69;;;8.72;62.41
75219;BME280;63801;49.414;19.474;2024-03-23T01:59:31;93235.28;;;8.74;62.31
75219;BME280;63801;49.414;19.474;2024-03-23T02:01:32;93236.06;;;8.75;62.35
75219;BME280;63801;49.414;19.474;2024-03-23T02:03:33;93222.19;;;8.73;62.71
75219;BME280;63801;49.414;19.474;2024-03-23T02:05:33;93230.59;;;8.71;62.69
75219;BME280;63801;49.414;19.474;2024-03-23T02:07:33;93208.31;;;8.71;62.72
75219;BME280;63801;49.414;19.474;2024-03-23T02:09:34;93220.63;;;8.72;62.74
75219;BME280;63801;49.414;19.474;2024-03-23T02:11:35;93213.69;;;8.71;62.80
75219;BME280;63801;49.414;19.474;2024-03-23T02:13:35;93205.28;;;8.72;62.59
75219;BME280;63801;49.414;19.474;2024-03-23T02:15:35;93217.59;;;8.73;62.71
75219;BME280;63801;49.414;19.474;2024-03-23T02:17:36;93209.59;;;8.77;62.70
75219;BME280;63801;49.414;19.474;2024-03-23T02:19:36;93199.28;;;8.79;63.06
75219;BME280;63801;49.414;19.474;2024-03-23T02:21:36;93208.56;;;8.81;62.60
75219;BME280;63801;49.414;19.474;2024-03-23T02:23:37;93194.34;;;8.81;62.66
75219;BME280;63801;49.414;19.474;2024-03-23T02:25:37;93198.59;;;8.82;62.54
75219;BME280;63801;49.414;19.474;2024-03-23T02:27:37;93200.94;;;8.83;62.56
75219;BME280;63801;49.414;19.474;2024-03-23T02:29:39;93197.47;;;8.83;62.21
75219;BME280;63801;49.414;19.474;2024-03-23T02:31:39;93201.00;;;8.87;62.34
75219;BME280;63801;49.414;19.474;2024-03-23T02:33:39;93198.75;;;8.89;62.27
75219;BME280;63801;49.414;19.474;2024-03-23T02:35:40;93202.63;;;8.91;62.81
75219;BME280;63801;49.414;19.474;2024-03-23T02:37:40;93194.22;;;8.93;62.15
75219;BME280;63801;49.414;19.474;2024-03-23T02:39:40;93194.22;;;8.93;62.20
75219;BME280;63801;49.414;19.474;2024-03-23T02:41:41;93188.50;;;8.94;62.18
75219;BME280;63801;49.414;19.474;2024-03-23T02:43:41;93186.59;;;8.95;62.07
75219;BME280;63801;49.414;19.474;2024-03-23T02:45:41;93185.03;;;8.94;61.93
75219;BME280;63801;49.414;19.474;2024-03-23T02:47:42;93184.25;;;8.93;62.22
75219;BME280;63801;49.414;19.474;2024-03-23T02:49:42;93178.88;;;8.93;62.29
75219;BME280;63801;49.414;19.474;2024-03-23T02:51:43;93178.09;;;8.93;62.24
75219;BME280;63801;49.414;19.474;2024-03-23T02:53:45;93174.25;;;8.94;62.45
75219;BME280;63801;49.414;19.474;2024-03-23T02:55:45;93175.41;;;8.93;62.45
75219;BME280;63801;49.414;19.474;2024-03-23T02:57:46;93171.16;;;8.92;62.40
75219;BME280;63801;49.414;19.474;2024-03-23T02:59:46;93172.28;;;8.91;62.22
75219;BME280;63801;49.414;19.474;2024-03-23T03:01:46;93176.53;;;8.92;62.71
75219;BME280;63801;49.414;19.474;2024-03-23T03:03:47;93165.34;;;8.90;62.51
75219;BME280;63801;49.414;19.474;2024-03-23T03:05:48;93163.09;;;8.92;62.44
75219;BME280;63801;49.414;19.474;2024-03-23T03:07:48;93170.47;;;8.95;62.24
75219;BME280;63801;49.414;19.474;2024-03-23T03:09:48;93164.28;;;8.94;62.41
75219;BME280;63801;49.414;19.474;2024-03-23T03:11:49;93161.28;;;8.96;62.45
75219;BME280;63801;49.414;19.474;2024-03-23T03:13:49;93151.28;;;8.96;62.47
75219;BME280;63801;49.414;19.474;2024-03-23T03:15:50;93153.19;;;8.96;62.34
75219;BME280;63801;49.414;19.474;2024-03-23T03:17:50;93153.19;;;8.96;62.54
75219;BME280;63801;49.414;19.474;2024-03-23T03:19:50;93139.75;;;8.96;62.44
75219;BME280;63801;49.414;19.474;2024-03-23T03:21:55;93134.03;;;8.97;62.54
75219;BME280;63801;49.414;19.474;2024-03-23T03:23:56;93136.00;;;9.00;62.41
75219;BME280;63801;49.414;19.474;2024-03-23T03:25:56;93137.59;;;9.01;62.49
75219;BME280;63801;49.414;19.474;2024-03-23T03:27:57;93129.94;;;9.03;62.41
75219;BME280;63801;49.414;19.474;2024-03-23T03:29:57;93126.56;;;9.07;62.35
75219;BME280;63801;49.414;19.474;2024-03-23T03:31:57;93130.78;;;9.08;62.48
75219;BME280;63801;49.414;19.474;2024-03-23T03:33:58;93130.44;;;9.09;62.37
75219;BME280;63801;49.414;19.474;2024-03-23T03:35:58;93131.63;;;9.12;62.52
75219;BME280;63801;49.414;19.474;2024-03-23T03:37:59;93132.06;;;9.14;62.55
75219;BME280;63801;49.414;19.474;2024-03-23T03:39:59;93129.03;;;9.15;62.42
75219;BME280;63801;49.414;19.474;2024-03-23T03:41:59;93122.50;;;9.16;62.45
75219;BME280;63801;49.414;19.474;2024-03-23T03:44:01;93119.47;;;9.18;62.43
75219;BME280;63801;49.414;19.474;2024-03-23T03:46:02;93112.97;;;9.19;62.49
75219;BME280;63801;49.414;19.474;2024-03-23T03:48:03;93104.09;;;9.18;62.52
75219;BME280;63801;49.414;19.474;2024-03-23T03:50:03;93098.72;;;9.18;62.60
75219;BME280;63801;49.414;19.474;2024-03-23T03:52:04;93099.44;;;9.15;62.69
75219;BME280;63801;49.414;19.474;2024-03-23T03:54:04;93104.88;;;9.19;62.73
75219;BME280;63801;49.414;19.474;2024-03-23T03:56:05;93091.78;;;9.17;62.91
75219;BME280;63801;49.414;19.474;2024-03-23T03:58:05;93106.34;;;9.16;63.18
75219;BME280;63801;49.414;19.474;2024-03-23T04:00:06;93090.66;;;9.18;63.27
75219;BME280;63801;49.414;19.474;2024-03-23T04:02:07;93099.16;;;9.20;63.19
75219;BME280;63801;49.414;19.474;2024-03-23T04:04:07;93092.22;;;9.19;63.56
75219;BME280;63801;49.414;19.474;2024-03-23T04:06:07;93088.41;;;9.20;63.38
75219;BME280;63801;49.414;19.474;2024-03-23T04:08:08;93085.72;;;9.20;63.29
75219;BME280;63801;49.414;19.474;2024-03-23T04:10:08;93073.41;;;9.19;63.20
75219;BME280;63801;49.414;19.474;2024-03-23T04:12:09;93087.69;;;9.23;63.43
75219;BME280;63801;49.414;19.474;2024-03-23T04:14:09;93081.19;;;9.24;63.48
75219;BME280;63801;49.414;19.474;2024-03-23T04:16:10;93089.66;;;9.26;63.53
75219;BME280;63801;49.414;19.474;2024-03-23T04:18:10;93093.13;;;9.27;63.44
75219;BME280;63801;49.414;19.474;2024-03-23T04:20:11;93072.06;;;9.29;63.42
75219;BME280;63801;49.414;19.474;2024-03-23T04:22:13;93087.41;;;9.28;63.49
75219;BME280;63801;49.414;19.474;2024-03-23T04:24:14;93088.59;;;9.31;63.54
75219;BME280;63801;49.414;19.474;2024-03-23T04:26:15;93077.50;;;9.32;63.35
75219;BME280;63801;49.414;19.474;2024-03-23T04:28:16;93085.63;;;9.36;63.41
75219;BME280;63801;49.414;19.474;2024-03-23T04:30:16;93071.03;;;9.37;63.41
75219;BME280;63801;49.414;19.474;2024-03-23T04:32:17;93078.34;;;9.36;63.41
75219;BME280;63801;49.414;19.474;2024-03-23T04:34:18;93078.34;;;9.36;63.28
75219;BME280;63801;49.414;19.474;2024-03-23T04:36:19;93083.00;;;9.39;63.37
75219;BME280;63801;49.414;19.474;2024-03-23T04:38:19;93089.94;;;9.40;63.26
75219;BME280;63801;49.414;19.474;2024-03-23T04:40:19;93089.94;;;9.40;63.13
75219;BME280;63801;49.414;19.474;2024-03-23T04:42:20;93088.44;;;9.43;63.15
75219;BME280;63801;49.414;19.474;2024-03-23T04:44:20;93085.00;;;9.42;63.21
75219;BME280;63801;49.414;19.474;2024-03-23T04:46:21;93075.34;;;9.41;63.18
75219;BME280;63801;49.414;19.474;2024-03-23T04:48:22;93072.28;;;9.43;63.14
75219;BME280;63801;49.414;19.474;2024-03-23T04:50:22;93079.22;;;9.44;63.11
75219;BME280;63801;49.414;19.474;2024-03-23T04:52:23;93071.16;;;9.44;63.08
75219;BME280;63801;49.414;19.474;2024-03-23T04:54:23;93066.56;;;9.44;63.18
75219;BME280;63801;49.414;19.474;2024-03-23T04:56:24;93066.91;;;9.43;63.27
75219;BME280;63801;49.414;19.474;2024-03-23T04:58:25;93054.47;;;9.35;63.42
75219;BME280;63801;49.414;19.474;2024-03-23T05:00:25;93060.78;;;9.42;63.35
75219;BME280;63801;49.414;19.474;2024-03-23T05:02:26;93054.25;;;9.43;63.25
75219;BME280;63801;49.414;19.474;2024-03-23T05:04:27;93040.72;;;9.40;63.42
75219;BME280;63801;49.414;19.474;2024-03-23T05:06:27;93047.72;;;9.44;63.35
75219;BME280;63801;49.414;19.474;2024-03-23T05:08:28;93046.16;;;9.43;63.27
75219;BME280;63801;49.414;19.474;2024-03-23T05:10:29;93052.31;;;9.44;63.34
75219;BME280;63801;49.414;19.474;2024-03-23T05:12:29;93054.66;;;9.45;63.33
75219;BME280;63801;49.414;19.474;2024-03-23T05:14:29;93060.84;;;9.46;63.30
75219;BME280;63801;49.414;19.474;2024-03-23T05:16:30;93060.88;;;9.50;63.29
75219;BME280;63801;49.414;19.474;2024-03-23T05:18:30;93068.63;;;9.51;63.27
75219;BME280;63801;49.414;19.474;2024-03-23T05:20:31;93066.31;;;9.53;63.17
75219;BME280;63801;49.414;19.474;2024-03-23T05:22:32;93068.66;;;9.55;63.30
75219;BME280;63801;49.414;19.474;2024-03-23T05:24:32;93036.47;;;9.39;62.97
75219;BME280;63801;49.414;19.474;2024-03-23T05:26:33;93070.22;;;9.56;63.28
75219;BME280;63801;49.414;19.474;2024-03-23T05:28:34;93058.75;;;9.59;63.31
75219;BME280;63801;49.414;19.474;2024-03-23T05:30:34;93066.09;;;9.62;63.37
75219;BME280;63801;49.414;19.474;2024-03-23T05:32:34;93054.44;;;9.54;63.39
75219;BME280;63801;49.414;19.474;2024-03-23T05:34:35;93059.56;;;9.63;63.31
75219;BME280;63801;49.414;19.474;2024-03-23T05:36:35;93051.50;;;9.63;63.36
75219;BME280;63801;49.414;19.474;2024-03-23T05:38:36;93061.13;;;9.64;63.38
75219;BME280;63801;49.414;19.474;2024-03-23T05:40:36;93062.31;;;9.66;63.25
75219;BME280;63801;49.414;19.474;2024-03-23T05:42:40;93053.47;;;9.66;63.21
75219;BME280;63801;49.414;19.474;2024-03-23T05:44:40;93048.81;;;9.63;63.20
75219;BME280;63801;49.414;19.474;2024-03-23T05:46:41;93047.97;;;9.59;63.33
75219;BME280;63801;49.414;19.474;2024-03-23T05:48:41;93051.81;;;9.58;63.37
75219;BME280;63801;49.414;19.474;2024-03-23T05:50:42;93043.25;;;9.52;63.40
75219;BME280;63801;49.414;19.474;2024-03-23T05:52:43;93047.84;;;9.52;63.54
75219;BME280;63801;49.414;19.474;2024-03-23T05:54:43;93030.03;;;9.43;63.74
75219;BME280;63801;49.414;19.474;2024-03-23T05:56:44;93032.03;;;9.46;63.92
75219;BME280;63801;49.414;19.474;2024-03-23T05:58:44;93028.13;;;9.44;64.00
75219;BME280;63801;49.414;19.474;2024-03-23T06:00:44;93027.00;;;9.45;63.91
75219;BME280;63801;49.414;19.474;2024-03-23T06:02:45;93017.66;;;9.39;63.97
75219;BME280;63801;49.414;19.474;2024-03-23T06:04:45;93017.34;;;9.44;64.09
75219;BME280;63801;49.414;19.474;2024-03-23T06:06:46;93015.44;;;9.44;64.47
75219;BME280;63801;49.414;19.474;2024-03-23T06:08:46;93021.94;;;9.43;64.65
75219;BME280;63801;49.414;19.474;2024-03-23T06:10:47;93013.09;;;9.43;64.84
75219;BME280;63801;49.414;19.474;2024-03-23T06:12:47;93025.56;;;9.51;64.75
75219;BME280;63801;49.414;19.474;2024-03-23T06:14:49;93029.44;;;9.54;64.84
75219;BME280;63801;49.414;19.474;2024-03-23T06:16:49;93024.94;;;9.61;64.65
75219;BME280;63801;49.414;19.474;2024-03-23T06:18:51;93018.19;;;9.71;64.72
75219;BME280;63801;49.414;19.474;2024-03-23T06:20:51;93000.59;;;9.77;64.70
75219;BME280;63801;49.414;19.474;2024-03-23T06:22:51;93007.66;;;9.85;64.54
75219;BME280;63801;49.414;19.474;2024-03-23T06:24:52;93005.88;;;9.96;64.32
75219;BME280;63801;49.414;19.474;2024-03-23T06:26:52;92998.28;;;10.02;64.33
75219;BME280;63801;49.414;19.474;2024-03-23T06:28:52;92996.09;;;10.11;64.04
75219;BME280;63801;49.414;19.474;2024-03-23T06:30:53;92998.06;;;10.14;63.96
75219;BME280;63801;49.414;19.474;2024-03-23T06:32:53;92988.53;;;10.16;63.71
75219;BME280;63801;49.414;19.474;2024-03-23T06:34:53;92999.78;;;10.22;63.61
75219;BME280;63801;49.414;19.474;2024-03-23T06:36:54;92991.78;;;10.29;63.67
75219;BME280;63801;49.414;19.474;2024-03-23T06:38:54;92991.03;;;10.32;63.54
75219;BME280;63801;49.414;19.474;2024-03-23T06:40:54;93014.63;;;10.39;63.32
75219;BME280;63801;49.414;19.474;2024-03-23T06:42:55;92998.53;;;10.46;63.30
75219;BME280;63801;49.414;19.474;2024-03-23T06:44:55;92995.13;;;10.49;62.98
75219;BME280;63801;49.414;19.474;2024-03-23T06:46:56;92991.59;;;10.45;62.86
75219;BME280;63801;49.414;19.474;2024-03-23T06:48:56;92986.94;;;10.42;62.76
75219;BME280;63801;49.414;19.474;2024-03-23T06:50:57;93005.41;;;10.40;62.57
75219;BME280;63801;49.414;19.474;2024-03-23T06:52:57;93004.19;;;10.37;62.92
75219;BME280;63801;49.414;19.474;2024-03-23T06:54:58;93003.78;;;10.35;62.99
75219;BME280;63801;49.414;19.474;2024-03-23T06:56:58;93000.63;;;10.29;63.01
75219;BME280;63801;49.414;19.474;2024-03-23T06:58:59;92989.84;;;10.29;63.26
75219;BME280;63801;49.414;19.474;2024-03-23T07:00:59;92989.44;;;10.27;63.29
75219;BME280;63801;49.414;19.474;2024-03-23T07:03:00;92969.47;;;10.32;63.18
75219;BME280;63801;49.414;19.474;2024-03-23T07:05:00;92960.72;;;10.39;62.79
75219;BME280;63801;49.414;19.474;2024-03-23T07:07:01;92965.47;;;10.49;63.16
75219;BME280;63801;49.414;19.474;2024-03-23T07:09:04;92966.38;;;10.60;63.18
75219;BME280;63801;49.414;19.474;2024-03-23T07:11:04;92970.34;;;10.69;63.11
75219;BME280;63801;49.414;19.474;2024-03-23T07:13:04;92959.63;;;10.76;62.67
75219;BME280;63801;49.414;19.474;2024-03-23T07:15:05;92962.78;;;10.82;62.36
75219;BME280;63801;49.414;19.474;2024-03-23T07:17:06;92958.94;;;10.83;62.24
75219;BME280;63801;49.414;19.474;2024-03-23T07:19:06;92961.25;;;10.85;61.94
75219;BME280;63801;49.414;19.474;2024-03-23T07:21:06;92963.25;;;10.88;61.79
75219;BME280;63801;49.414;19.474;2024-03-23T07:23:07;92959.78;;;10.91;61.61
75219;BME280;63801;49.414;19.474;2024-03-23T07:25:07;92954.84;;;10.96;61.56
75219;BME280;63801;49.414;19.474;2024-03-23T07:27:07;92975.69;;;10.99;61.40
75219;BME280;63801;49.414;19.474;2024-03-23T07:29:11;92969.94;;;11.01;61.25
75219;BME280;63801;49.414;19.474;2024-03-23T07:31:13;92979.97;;;11.04;61.13
75219;BME280;63801;49.414;19.474;2024-03-23T07:33:14;92968.41;;;11.03;60.97
75219;BME280;63801;49.414;19.474;2024-03-23T07:35:14;92963.78;;;11.04;60.98
75219;BME280;63801;49.414;19.474;2024-03-23T07:37:15;92969.53;;;11.02;61.01
75219;BME280;63801;49.414;19.474;2024-03-23T07:39:15;92968.00;;;11.01;60.92
75219;BME280;63801;49.414;19.474;2024-03-23T07:41:18;92971.47;;;11.02;60.76
75219;BME280;63801;49.414;19.474;2024-03-23T07:43:19;92972.22;;;11.02;60.82
75219;BME280;63801;49.414;19.474;2024-03-23T07:45:19;92978.38;;;10.99;60.88
75219;BME280;63801;49.414;19.474;2024-03-23T07:47:20;92965.53;;;10.89;60.86
75219;BME280;63801;49.414;19.474;2024-03-23T07:49:20;92975.19;;;10.90;60.76
75219;BME280;63801;49.414;19.474;2024-03-23T07:51:22;92939.59;;;10.74;60.80
75219;BME280;63801;49.414;19.474;2024-03-23T07:53:23;92965.22;;;10.94;61.15
75219;BME280;63801;49.414;19.474;2024-03-23T07:55:23;92960.63;;;10.98;61.01
75219;BME280;63801;49.414;19.474;2024-03-23T07:57:23;92961.06;;;11.00;61.01
75219;BME280;63801;49.414;19.474;2024-03-23T07:59:24;92961.09;;;11.04;60.88
75219;BME280;63801;49.414;19.474;2024-03-23T08:01:25;92948.41;;;11.08;60.93
75219;BME280;63801;49.414;19.474;2024-03-23T08:03:25;92952.25;;;11.07;60.66
75219;BME280;63801;49.414;19.474;2024-03-23T08:05:26;92953.59;;;11.23;60.94
75219;BME280;63801;49.414;19.474;2024-03-23T08:07:26;92957.16;;;11.38;60.92
75219;BME280;63801;49.414;19.474;2024-03-23T08:09:27;92951.25;;;11.66;60.91
75219;BME280;63801;49.414;19.474;2024-03-23T08:11:28;92946.94;;;12.09;60.02
75219;BME280;63801;49.414;19.474;2024-03-23T08:13:29;92940.91;;;12.33;58.56
75219;BME280;63801;49.414;19.474;2024-03-23T08:15:31;92932.88;;;12.51;58.14
75219;BME280;63801;49.414;19.474;2024-03-23T08:17:33;92910.56;;;12.75;58.03
75219;BME280;63801;49.414;19.474;2024-03-23T08:19:33;92922.59;;;13.02;56.96
75219;BME280;63801;49.414;19.474;2024-03-23T08:21:33;92922.69;;;13.34;56.84
75219;BME280;63801;49.414;19.474;2024-03-23T08:23:35;92910.31;;;13.79;55.78
75219;BME280;63801;49.414;19.474;2024-03-23T08:25:39;92914.91;;;14.25;54.78
75219;BME280;63801;49.414;19.474;2024-03-23T08:27:39;92914.81;;;14.60;54.66
75219;BME280;63801;49.414;19.474;2024-03-23T08:29:39;92921.72;;;14.75;53.07
75219;BME280;63801;49.414;19.474;2024-03-23T08:31:40;92908.19;;;14.72;52.40
75219;BME280;63801;49.414;19.474;2024-03-23T08:33:40;92898.94;;;14.55;51.85
75219;BME280;63801;49.414;19.474;2024-03-23T08:35:43;92918.31;;;14.57;52.05
75219;BME280;63801;49.414;19.474;2024-03-23T08:37:53;92901.72;;;14.41;51.76
75219;BME280;63801;49.414;19.474;2024-03-23T08:39:53;92907.13;;;14.27;51.80
75219;BME280;63801;49.414;19.474;2024-03-23T08:41:54;92898.28;;;14.09;51.81
75219;BME280;63801;49.414;19.474;2024-03-23T08:43:54;92901.78;;;14.02;52.45
75219;BME280;63801;49.414;19.474;2024-03-23T08:46:02;92904.09;;;14.04;52.58
75219;BME280;63801;49.414;19.474;2024-03-23T08:48:03;92880.09;;;14.02;52.29
75219;BME280;63801;49.414;19.474;2024-03-23T08:50:04;92895.19;;;14.07;52.85
75219;BME280;63801;49.414;19.474;2024-03-23T08:52:04;92883.94;;;14.12;51.78
75219;BME280;63801;49.414;19.474;2024-03-23T08:54:05;92888.59;;;14.08;51.63
75219;BME280;63801;49.414;19.474;2024-03-23T08:56:07;92890.13;;;14.09;51.98
75219;BME280;63801;49.414;19.474;2024-03-23T08:58:07;92884.28;;;14.31;51.67
75219;BME280;63801;49.414;19.474;2024-03-23T09:00:09;92888.09;;;14.59;50.85
75219;BME280;63801;49.414;19.474;2024-03-23T09:02:11;92881.06;;;14.65;50.25
75219;BME280;63801;49.414;19.474;2024-03-23T09:04:11;92877.22;;;14.62;50.63
75219;BME280;63801;49.414;19.474;2024-03-23T09:06:14;92883.03;;;14.64;50.02
75219;BME280;63801;49.414;19.474;2024-03-23T09:08:14;92883.81;;;14.58;50.10
75219;BME280;63801;49.414;19.474;2024-03-23T09:10:14;92881.56;;;14.38;49.67
75219;BME280;63801;49.414;19.474;2024-03-23T09:12:15;92869.19;;;14.27;50.69
75219;BME280;63801;49.414;19.474;2024-03-23T09:14:16;92874.22;;;14.21;50.58
75219;BME280;63801;49.414;19.474;2024-03-23T09:16:16;92871.59;;;14.07;51.05
75219;BME280;63801;49.414;19.474;2024-03-23T09:18:17;92856.50;;;13.92;51.19
75219;BME280;63801;49.414;19.474;2024-03-23T09:20:17;92858.47;;;13.77;51.66
75219;BME280;63801;49.414;19.474;2024-03-23T09:22:18;92843.00;;;13.67;51.61
75219;BME280;63801;49.414;19.474;2024-03-23T09:24:18;92856.94;;;13.52;52.14
75219;BME280;63801;49.414;19.474;2024-03-23T09:26:19;92850.00;;;13.43;51.94
75219;BME280;63801;49.414;19.474;2024-03-23T09:28:19;92843.03;;;13.39;52.12
75219;BME280;63801;49.414;19.474;2024-03-23T09:30:19;92846.53;;;13.36;52.42
75219;BME280;63801;49.414;19.474;2024-03-23T09:32:20;92843.03;;;13.35;52.76
75219;BME280;63801;49.414;19.474;2024-03-23T09:34:20;92838.41;;;13.36;52.67
75219;BME280;63801;49.414;19.474;2024-03-23T09:36:20;92842.25;;;13.35;52.86
75219;BME280;63801;49.414;19.474;2024-03-23T09:38:21;92844.59;;;13.36;52.93
75219;BME280;63801;49.414;19.474;2024-03-23T09:40:21;92826.03;;;13.35;52.96
75219;BME280;63801;49.414;19.474;2024-03-23T09:42:22;92848.44;;;13.39;52.73
75219;BME280;63801;49.414;19.474;2024-03-23T09:44:23;92831.81;;;13.37;52.97
75219;BME280;63801;49.414;19.474;2024-03-23T09:46:26;92831.03;;;13.33;52.90
75219;BME280;63801;49.414;19.474;2024-03-23T09:48:26;92832.22;;;13.32;53.21
75219;BME280;63801;49.414;19.474;2024-03-23T09:50:27;92830.66;;;13.31;53.16
75219;BME280;63801;49.414;19.474;2024-03-23T09:52:27;92826.41;;;13.30;53.09
75219;BME280;63801;49.414;19.474;2024-03-23T09:54:27;92822.16;;;13.25;53.34
75219;BME280;63801;49.414;19.474;2024-03-23T09:56:28;92805.91;;;13.22;52.90
75219;BME280;63801;49.414;19.474;2024-03-23T09:58:28;92815.97;;;13.21;52.86
75219;BME280;63801;49.414;19.474;2024-03-23T10:00:28;92824.47;;;13.20;52.01
75219;BME280;63801;49.414;19.474;2024-03-23T10:02:29;92818.28;;;13.16;52.28
75219;BME280;63801;49.414;19.474;2024-03-23T10:04:42;92804.75;;;13.19;52.59
75219;BME280;63801;49.414;19.474;2024-03-23T10:06:44;92815.19;;;13.21;52.22
75219;BME280;63801;49.414;19.474;2024-03-23T10:08:46;92796.25;;;13.17;52.60
75219;BME280;63801;49.414;19.474;2024-03-23T10:10:46;92800.50;;;13.18;52.65
75219;BME280;63801;49.414;19.474;2024-03-23T10:12:48;92790.06;;;13.17;52.67
75219;BME280;63801;49.414;19.474;2024-03-23T10:14:50;92798.19;;;13.20;52.45
75219;BME280;63801;49.414;19.474;2024-03-23T10:16:51;92793.91;;;13.19;52.42
75219;BME280;63801;49.414;19.474;2024-03-23T10:18:52;92776.53;;;13.17;51.95
75219;BME280;63801;49.414;19.474;2024-03-23T10:21:07;92788.91;;;13.21;51.69
75219;BME280;63801;49.414;19.474;2024-03-23T10:23:22;92770.31;;;13.23;51.68
75219;BME280;63801;49.414;19.474;2024-03-23T10:25:23;92781.53;;;13.29;51.80
75219;BME280;63801;49.414;19.474;2024-03-23T10:27:23;92776.91;;;13.36;51.65
75219;BME280;63801;49.414;19.474;2024-03-23T10:29:23;92766.44;;;13.45;51.77
75219;BME280;63801;49.414;19.474;2024-03-23T10:31:28;92753.31;;;13.44;51.61
75219;BME280;63801;49.414;19.474;2024-03-23T10:33:29;92744.75;;;13.60;51.34
75219;BME280;63801;49.414;19.474;2024-03-23T10:35:31;92745.50;;;13.60;51.29
75219;BME280;63801;49.414;19.474;2024-03-23T10:37:31;92758.25;;;13.70;51.12
75219;BME280;63801;49.414;19.474;2024-03-23T10:39:39;92750.13;;;13.74;51.08
75219;BME280;63801;49.414;19.474;2024-03-23T10:41:39;92734.63;;;13.78;50.87
75219;BME280;63801;49.414;19.474;2024-03-23T10:43:43;92743.50;;;13.85;50.56
75219;BME280;63801;49.414;19.474;2024-03-23T10:45:44;92739.97;;;13.95;51.04
75219;BME280;63801;49.414;19.474;2024-03-23T10:47:45;92739.53;;;14.08;50.80
75219;BME280;63801;49.414;19.474;2024-03-23T10:49:46;92735.25;;;14.14;50.40
75219;BME280;63801;49.414;19.474;2024-03-23T10:51:48;92727.47;;;14.23;50.05
75219;BME280;63801;49.414;19.474;2024-03-23T10:53:49;92731.28;;;14.36;49.67
75219;BME280;63801;49.414;19.474;2024-03-23T10:55:51;92722.69;;;14.48;49.33
75219;BME280;63801;49.414;19.474;2024-03-23T10:57:55;92719.53;;;14.60;49.32
75219;BME280;63801;49.414;19.474;2024-03-23T10:59:58;92712.03;;;14.75;48.42
75219;BME280;63801;49.414;19.474;2024-03-23T11:01:59;92696.88;;;14.81;48.25
75219;BME280;63801;49.414;19.474;2024-03-23T11:04:00;92718.47;;;14.92;47.82
75219;BME280;63801;49.414;19.474;2024-03-23T11:06:01;92690.19;;;14.93;47.65
75219;BME280;63801;49.414;19.474;2024-03-23T11:08:03;92699.84;;;14.97;47.22
75219;BME280;63801;49.414;19.474;2024-03-23T11:10:27;92684.25;;;15.05;46.75
75219;BME280;63801;49.414;19.474;2024-03-23T11:12:30;92686.53;;;15.13;46.91
75219;BME280;63801;49.414;19.474;2024-03-23T11:14:33;92675.94;;;15.22;46.96
75219;BME280;63801;49.414;19.474;2024-03-23T11:16:33;92666.91;;;15.33;46.49
75219;BME280;63801;49.414;19.474;2024-03-23T11:18:36;92668.38;;;15.41;46.07
75219;BME280;63801;49.414;19.474;2024-03-23T11:20:36;92669.19;;;15.38;45.56
75219;BME280;63801;49.414;19.474;2024-03-23T11:22:41;92661.81;;;15.38;45.30
75219;BME280;63801;49.414;19.474;2024-03-23T11:24:42;92648.16;;;15.45;45.79
75219;BME280;63801;49.414;19.474;2024-03-23T11:26:43;92640.31;;;15.54;45.19
75219;BME280;63801;49.414;19.474;2024-03-23T11:28:43;92646.13;;;15.56;44.58